SAZ62 OMDB-VHHH
Flight info
| Callsign | SAZ62 |
|---|---|
| Flight time | N/A |
| Altitude | 35000 |
| Route | IVURO M677 LALDO B505 NADSO B524 ALPOR M504 TELEM A791 CEA B465 CTG A599 LINSO/K0872S1065 A599 POU R473 SIERA |
| Aircraft | CL60/M-SBDE1E2E3FGHIJ1J4J5J7M3RWXYZ/LB1V1D1 |
Departure
| Time | 2026-04-26 09:00 |
|---|---|
| Airport | Dubai International Airport (OMDB) |
Arrival
| Time | N/A |
|---|---|
| Airport | Hong Kong International Airport (VHHH) |
| Time | Latitude | Longitude | Altitude | Speed | Heading |
|---|---|---|---|---|---|
| 2026-04-26 08:00 | 25.26148 | 55.36374 | 22 ft | 0 kts | 30° |
| 2026-04-26 08:42 | 25.26142 | 55.36370 | 21 ft | 2 kts | 31° |
| 2026-04-26 08:43 | 25.26129 | 55.36362 | 22 ft | 2 kts | 31° |
| 2026-04-26 08:43 | 25.26116 | 55.36353 | 22 ft | 2 kts | 31° |
| 2026-04-26 08:43 | 25.26103 | 55.36344 | 22 ft | 2 kts | 31° |
| 2026-04-26 08:43 | 25.26090 | 55.36336 | 22 ft | 2 kts | 31° |
| 2026-04-26 08:44 | 25.26079 | 55.36328 | 22 ft | 2 kts | 30° |
| 2026-04-26 08:44 | 25.26067 | 55.36320 | 22 ft | 1 kts | 45° |
| 2026-04-26 08:44 | 25.26063 | 55.36306 | 22 ft | 1 kts | 104° |
| 2026-04-26 08:44 | 25.26066 | 55.36299 | 22 ft | 0 kts | 121° |
| 2026-04-26 08:52 | 25.26062 | 55.36306 | 22 ft | 5 kts | 123° |
| 2026-04-26 08:52 | 25.26016 | 55.36334 | 22 ft | 9 kts | 193° |
| 2026-04-26 08:53 | 25.25987 | 55.36321 | 22 ft | 4 kts | 187° |
| 2026-04-26 08:53 | 25.25958 | 55.36327 | 23 ft | 4 kts | 148° |
| 2026-04-26 08:53 | 25.25934 | 55.36363 | 23 ft | 6 kts | 121° |
| 2026-04-26 08:53 | 25.25907 | 55.36411 | 23 ft | 8 kts | 122° |
| 2026-04-26 08:54 | 25.25871 | 55.36476 | 24 ft | 11 kts | 121° |
| 2026-04-26 08:54 | 25.25822 | 55.36564 | 25 ft | 15 kts | 121° |
| 2026-04-26 08:54 | 25.25759 | 55.36678 | 25 ft | 19 kts | 121° |
| 2026-04-26 08:54 | 25.25682 | 55.36817 | 25 ft | 22 kts | 121° |
| 2026-04-26 08:55 | 25.25598 | 55.36968 | 27 ft | 23 kts | 121° |
| 2026-04-26 08:55 | 25.25518 | 55.37113 | 31 ft | 22 kts | 121° |
| 2026-04-26 08:55 | 25.25433 | 55.37267 | 32 ft | 19 kts | 121° |
| 2026-04-26 08:55 | 25.25357 | 55.37403 | 32 ft | 21 kts | 121° |
| 2026-04-26 08:56 | 25.25278 | 55.37545 | 33 ft | 22 kts | 121° |
| 2026-04-26 08:56 | 25.25224 | 55.37644 | 34 ft | 22 kts | 121° |
| 2026-04-26 08:56 | 25.25108 | 55.37851 | 34 ft | 24 kts | 121° |
| 2026-04-26 08:56 | 25.25035 | 55.37985 | 34 ft | 15 kts | 120° |
| 2026-04-26 08:57 | 25.24993 | 55.38036 | 34 ft | 7 kts | 162° |
| 2026-04-26 08:57 | 25.24943 | 55.38021 | 35 ft | 7 kts | 212° |
| 2026-04-26 08:57 | 25.24941 | 55.38019 | 35 ft | 0 kts | 212° |
| 2026-04-26 08:59 | 25.24874 | 55.37973 | 37 ft | 11 kts | 225° |
| 2026-04-26 08:59 | 25.24890 | 55.37875 | 36 ft | 30 kts | 301° |
| 2026-04-26 08:59 | 25.25156 | 55.37392 | 34 ft | 112 kts | 302° |
| 2026-04-26 08:59 | 25.25682 | 55.36456 | 61 ft | 166 kts | 300° |
| 2026-04-26 09:00 | 25.26330 | 55.35301 | 487 ft | 185 kts | 301° |
| 2026-04-26 09:00 | 25.27005 | 55.34137 | 1295 ft | 184 kts | 303° |
| 2026-04-26 09:00 | 25.27666 | 55.32926 | 2076 ft | 187 kts | 302° |
| 2026-04-26 09:00 | 25.28352 | 55.31673 | 2634 ft | 200 kts | 302° |
| 2026-04-26 09:01 | 25.29126 | 55.30407 | 3148 ft | 197 kts | 315° |
| 2026-04-26 09:01 | 25.30256 | 55.29612 | 3606 ft | 196 kts | 344° |
| 2026-04-26 09:01 | 25.31608 | 55.29495 | 4051 ft | 198 kts | 359° |
| 2026-04-26 09:01 | 25.32996 | 55.29538 | 4493 ft | 199 kts | 358° |
| 2026-04-26 09:02 | 25.34382 | 55.29572 | 4929 ft | 201 kts | 358° |
| 2026-04-26 09:02 | 25.35797 | 55.29607 | 5370 ft | 203 kts | 358° |
| 2026-04-26 09:02 | 25.37223 | 55.29641 | 5816 ft | 213 kts | 357° |
| 2026-04-26 09:02 | 25.38759 | 55.29722 | 6358 ft | 227 kts | 6° |
| 2026-04-26 09:03 | 25.40244 | 55.30413 | 6963 ft | 243 kts | 38° |
| 2026-04-26 09:03 | 25.41379 | 55.31800 | 7619 ft | 250 kts | 49° |
| 2026-04-26 09:03 | 25.42462 | 55.33299 | 8295 ft | 253 kts | 49° |
| 2026-04-26 09:03 | 25.43571 | 55.34817 | 8973 ft | 257 kts | 49° |
| 2026-04-26 09:04 | 25.44712 | 55.36379 | 9667 ft | 262 kts | 49° |
| 2026-04-26 09:04 | 25.45853 | 55.37942 | 10372 ft | 265 kts | 49° |
| 2026-04-26 09:04 | 25.47004 | 55.39519 | 11085 ft | 268 kts | 49° |
| 2026-04-26 09:04 | 25.48176 | 55.41124 | 11821 ft | 270 kts | 50° |
| 2026-04-26 09:05 | 25.49330 | 55.42755 | 12560 ft | 273 kts | 51° |
| 2026-04-26 09:05 | 25.50495 | 55.44430 | 13316 ft | 275 kts | 51° |
| 2026-04-26 09:05 | 25.51646 | 55.46086 | 14046 ft | 277 kts | 51° |
| 2026-04-26 09:05 | 25.52603 | 55.47917 | 14807 ft | 279 kts | 71° |
| 2026-04-26 09:06 | 25.52903 | 55.50019 | 15446 ft | 278 kts | 96° |
| 2026-04-26 09:06 | 25.52437 | 55.52064 | 16107 ft | 274 kts | 121° |
| 2026-04-26 09:06 | 25.51466 | 55.53858 | 16754 ft | 274 kts | 126° |
| 2026-04-26 09:06 | 25.50447 | 55.55634 | 17380 ft | 276 kts | 126° |
| 2026-04-26 09:07 | 25.49433 | 55.57413 | 18007 ft | 277 kts | 126° |
| 2026-04-26 09:07 | 25.48398 | 55.59227 | 18599 ft | 279 kts | 126° |
| 2026-04-26 09:07 | 25.47365 | 55.61038 | 19182 ft | 281 kts | 126° |
| 2026-04-26 09:07 | 25.46321 | 55.62868 | 19733 ft | 284 kts | 126° |
| 2026-04-26 09:08 | 25.45252 | 55.64742 | 20261 ft | 288 kts | 126° |
| 2026-04-26 09:08 | 25.44190 | 55.66601 | 20778 ft | 290 kts | 127° |
| 2026-04-26 09:08 | 25.43112 | 55.68496 | 21293 ft | 293 kts | 124° |
| 2026-04-26 09:08 | 25.42328 | 55.70603 | 21739 ft | 303 kts | 106° |
| 2026-04-26 09:09 | 25.41848 | 55.72885 | 22202 ft | 307 kts | 105° |
| 2026-04-26 09:09 | 25.41367 | 55.75176 | 22690 ft | 309 kts | 105° |
| 2026-04-26 09:09 | 25.40878 | 55.77491 | 23208 ft | 311 kts | 106° |
| 2026-04-26 09:09 | 25.40387 | 55.79808 | 23686 ft | 313 kts | 106° |
| 2026-04-26 09:10 | 25.39882 | 55.82184 | 23999 ft | 323 kts | 106° |
| 2026-04-26 09:10 | 25.39350 | 55.84670 | 23990 ft | 344 kts | 106° |
| 2026-04-26 09:10 | 25.38785 | 55.87314 | 24084 ft | 360 kts | 105° |
| 2026-04-26 09:10 | 25.38208 | 55.90018 | 24367 ft | 369 kts | 106° |
| 2026-04-26 09:11 | 25.37616 | 55.92795 | 24851 ft | 371 kts | 106° |
| 2026-04-26 09:11 | 25.37029 | 55.95547 | 25375 ft | 372 kts | 105° |
| 2026-04-26 09:11 | 25.36435 | 55.98327 | 25849 ft | 373 kts | 106° |
| 2026-04-26 09:11 | 25.35837 | 56.01125 | 26311 ft | 375 kts | 106° |
| 2026-04-26 09:12 | 25.35238 | 56.03920 | 26738 ft | 377 kts | 106° |
| 2026-04-26 09:12 | 25.34668 | 56.06573 | 26983 ft | 385 kts | 106° |
| 2026-04-26 09:12 | 25.33990 | 56.09718 | 27023 ft | 400 kts | 106° |
| 2026-04-26 09:12 | 25.33345 | 56.12713 | 27210 ft | 409 kts | 106° |
| 2026-04-26 09:13 | 25.32731 | 56.15801 | 27550 ft | 414 kts | 100° |
| 2026-04-26 09:13 | 25.32433 | 56.18980 | 27949 ft | 417 kts | 97° |
| 2026-04-26 09:13 | 25.32179 | 56.22168 | 28349 ft | 419 kts | 97° |
| 2026-04-26 09:13 | 25.31920 | 56.25338 | 28764 ft | 420 kts | 97° |
| 2026-04-26 09:14 | 25.31655 | 56.28577 | 29137 ft | 422 kts | 97° |
| 2026-04-26 09:14 | 25.31390 | 56.31799 | 29402 ft | 426 kts | 97° |
| 2026-04-26 09:14 | 25.31120 | 56.35059 | 29669 ft | 429 kts | 96° |
| 2026-04-26 09:14 | 25.30851 | 56.38328 | 29907 ft | 434 kts | 95° |
| 2026-04-26 09:15 | 25.30700 | 56.41659 | 30125 ft | 438 kts | 92° |
| 2026-04-26 09:15 | 25.30604 | 56.45043 | 30391 ft | 441 kts | 91° |
| 2026-04-26 09:15 | 25.30505 | 56.48423 | 30624 ft | 445 kts | 91° |
| 2026-04-26 09:15 | 25.30404 | 56.51851 | 30912 ft | 447 kts | 91° |
| 2026-04-26 09:16 | 25.30302 | 56.55275 | 31135 ft | 450 kts | 90° |
| 2026-04-26 09:16 | 25.30142 | 56.58741 | 31395 ft | 453 kts | 96° |
| 2026-04-26 09:16 | 25.29396 | 56.62093 | 31576 ft | 458 kts | 110° |
| 2026-04-26 09:17 | 25.26909 | 56.68712 | 31674 ft | 472 kts | 113° |
| 2026-04-26 09:17 | 25.24357 | 56.75422 | 31978 ft | 479 kts | 112° |
| 2026-04-26 09:17 | 25.23065 | 56.78815 | 32199 ft | 481 kts | 112° |
| 2026-04-26 09:18 | 25.21773 | 56.82210 | 32440 ft | 482 kts | 111° |
| 2026-04-26 09:18 | 25.20479 | 56.85606 | 32654 ft | 483 kts | 111° |
| 2026-04-26 09:18 | 25.19177 | 56.89022 | 32853 ft | 485 kts | 111° |
| 2026-04-26 09:18 | 25.17861 | 56.92475 | 33116 ft | 486 kts | 111° |
| 2026-04-26 09:19 | 25.16559 | 56.95886 | 33411 ft | 485 kts | 111° |
| 2026-04-26 09:19 | 25.15263 | 56.99281 | 33810 ft | 482 kts | 111° |
| 2026-04-26 09:19 | 25.13957 | 57.02702 | 34189 ft | 480 kts | 111° |
| 2026-04-26 09:19 | 25.12674 | 57.06055 | 34530 ft | 477 kts | 111° |
| 2026-04-26 09:20 | 25.11379 | 57.09441 | 34814 ft | 477 kts | 111° |
| 2026-04-26 09:20 | 25.08794 | 57.16194 | 34819 ft | 483 kts | 111° |
| 2026-04-26 09:21 | 25.06183 | 57.23004 | 34823 ft | 479 kts | 111° |
| 2026-04-26 09:21 | 25.03591 | 57.29754 | 34823 ft | 485 kts | 111° |
| 2026-04-26 09:22 | 25.00930 | 57.36678 | 34819 ft | 496 kts | 110° |
| 2026-04-26 09:22 | 24.98221 | 57.43713 | 34824 ft | 506 kts | 111° |
| 2026-04-26 09:23 | 24.95458 | 57.50877 | 34807 ft | 515 kts | 111° |
| 2026-04-26 09:23 | 24.92626 | 57.58205 | 34802 ft | 522 kts | 111° |
| 2026-04-26 09:24 | 24.89790 | 57.65532 | 34801 ft | 523 kts | 111° |
| 2026-04-26 09:24 | 24.86931 | 57.72903 | 34804 ft | 522 kts | 111° |
| 2026-04-26 09:25 | 24.84097 | 57.80223 | 34805 ft | 520 kts | 110° |
| 2026-04-26 09:25 | 24.82143 | 57.87809 | 34807 ft | 516 kts | 99° |
| 2026-04-26 09:26 | 24.80599 | 57.95439 | 34819 ft | 516 kts | 99° |
| 2026-04-26 09:26 | 24.79031 | 58.03143 | 34805 ft | 515 kts | 99° |
| 2026-04-26 09:27 | 24.77470 | 58.10796 | 34805 ft | 515 kts | 99° |
| 2026-04-26 09:27 | 24.75907 | 58.18437 | 34798 ft | 514 kts | 99° |
| 2026-04-26 09:28 | 24.74335 | 58.26102 | 34801 ft | 513 kts | 99° |
| 2026-04-26 09:28 | 24.72765 | 58.33730 | 34797 ft | 512 kts | 99° |
| 2026-04-26 09:29 | 24.71201 | 58.41313 | 34813 ft | 511 kts | 99° |
| 2026-04-26 09:29 | 24.69632 | 58.48900 | 34812 ft | 510 kts | 100° |
| 2026-04-26 09:30 | 24.68056 | 58.56504 | 34816 ft | 510 kts | 100° |
| 2026-04-26 09:30 | 24.66482 | 58.64073 | 34820 ft | 509 kts | 99° |
| 2026-04-26 09:31 | 24.64911 | 58.71610 | 34791 ft | 508 kts | 100° |
| 2026-04-26 09:31 | 24.63331 | 58.79170 | 34808 ft | 508 kts | 100° |
| 2026-04-26 09:32 | 24.61747 | 58.86728 | 34817 ft | 507 kts | 101° |
| 2026-04-26 09:32 | 24.60177 | 58.94196 | 34794 ft | 507 kts | 100° |
| 2026-04-26 09:33 | 24.58587 | 59.01747 | 34799 ft | 507 kts | 100° |
| 2026-04-26 09:33 | 24.57007 | 59.09224 | 34805 ft | 505 kts | 100° |
| 2026-04-26 09:34 | 24.55419 | 59.16725 | 34813 ft | 505 kts | 101° |
| 2026-04-26 09:34 | 24.53831 | 59.24204 | 34777 ft | 503 kts | 100° |
| 2026-04-26 09:35 | 24.52245 | 59.31650 | 34806 ft | 503 kts | 101° |
| 2026-04-26 09:35 | 24.50651 | 59.39114 | 34782 ft | 502 kts | 101° |
| 2026-04-26 09:36 | 24.49061 | 59.46542 | 34796 ft | 502 kts | 101° |
| 2026-04-26 09:36 | 24.47459 | 59.54003 | 34811 ft | 501 kts | 101° |
| 2026-04-26 09:37 | 24.45864 | 59.61414 | 34812 ft | 500 kts | 101° |
| 2026-04-26 09:37 | 24.44271 | 59.68800 | 34803 ft | 500 kts | 101° |
| 2026-04-26 09:38 | 24.42675 | 59.76179 | 34809 ft | 499 kts | 102° |
| 2026-04-26 09:38 | 24.41076 | 59.83557 | 34786 ft | 498 kts | 101° |
| 2026-04-26 09:39 | 24.39471 | 59.90942 | 34832 ft | 499 kts | 102° |
| 2026-04-26 09:39 | 24.37868 | 59.98298 | 34815 ft | 497 kts | 102° |
| 2026-04-26 09:40 | 24.36271 | 60.05607 | 34802 ft | 495 kts | 102° |
| 2026-04-26 09:40 | 24.34668 | 60.12933 | 34807 ft | 495 kts | 102° |
| 2026-04-26 09:41 | 24.33066 | 60.20238 | 34814 ft | 494 kts | 102° |
| 2026-04-26 09:41 | 24.31459 | 60.27550 | 34818 ft | 493 kts | 102° |
| 2026-04-26 09:42 | 24.29853 | 60.34838 | 34803 ft | 494 kts | 102° |
| 2026-04-26 09:42 | 24.28238 | 60.42150 | 34831 ft | 494 kts | 101° |
| 2026-04-26 09:43 | 24.26624 | 60.49440 | 34812 ft | 494 kts | 102° |
| 2026-04-26 09:43 | 24.25007 | 60.56725 | 34806 ft | 493 kts | 102° |
| 2026-04-26 09:44 | 24.23390 | 60.63995 | 34807 ft | 494 kts | 102° |
| 2026-04-26 09:44 | 24.21767 | 60.71272 | 34812 ft | 493 kts | 102° |
| 2026-04-26 09:45 | 24.20143 | 60.78547 | 34827 ft | 492 kts | 102° |
| 2026-04-26 09:45 | 24.18522 | 60.85805 | 34808 ft | 492 kts | 102° |
| 2026-04-26 09:46 | 24.16893 | 60.93078 | 34813 ft | 492 kts | 102° |
| 2026-04-26 09:46 | 24.15268 | 61.00315 | 34817 ft | 492 kts | 102° |
| 2026-04-26 09:47 | 24.13636 | 61.07567 | 34814 ft | 492 kts | 102° |
| 2026-04-26 09:47 | 24.12005 | 61.14801 | 34813 ft | 491 kts | 102° |
| 2026-04-26 09:48 | 24.10363 | 61.22064 | 34801 ft | 491 kts | 102° |
| 2026-04-26 09:48 | 24.08727 | 61.29281 | 34803 ft | 490 kts | 102° |
| 2026-04-26 09:49 | 24.07603 | 61.36553 | 34811 ft | 487 kts | 91° |
| 2026-04-26 09:49 | 24.07176 | 61.43933 | 34807 ft | 487 kts | 91° |
| 2026-04-26 09:50 | 24.06740 | 61.51319 | 34807 ft | 487 kts | 91° |
| 2026-04-26 09:50 | 24.06300 | 61.58687 | 34801 ft | 487 kts | 91° |
| 2026-04-26 09:51 | 24.05857 | 61.66055 | 34804 ft | 487 kts | 91° |
| 2026-04-26 09:51 | 24.05410 | 61.73423 | 34804 ft | 487 kts | 91° |
| 2026-04-26 09:52 | 24.04961 | 61.80754 | 34799 ft | 487 kts | 92° |
| 2026-04-26 09:52 | 24.04278 | 61.91795 | 34805 ft | 486 kts | 91° |
| 2026-04-26 09:53 | 24.03819 | 61.99148 | 34803 ft | 486 kts | 92° |
| 2026-04-26 09:53 | 24.03355 | 62.06529 | 34797 ft | 486 kts | 92° |
| 2026-04-26 09:54 | 24.02890 | 62.13855 | 34808 ft | 486 kts | 92° |
| 2026-04-26 09:54 | 24.02419 | 62.21221 | 34801 ft | 486 kts | 92° |
| 2026-04-26 09:55 | 24.01946 | 62.28558 | 34801 ft | 486 kts | 92° |
| 2026-04-26 09:55 | 24.01467 | 62.35938 | 34801 ft | 486 kts | 92° |
| 2026-04-26 09:56 | 24.00990 | 62.43233 | 34813 ft | 485 kts | 92° |
| 2026-04-26 09:56 | 24.00506 | 62.50570 | 34817 ft | 484 kts | 92° |
| 2026-04-26 09:57 | 24.00021 | 62.57890 | 34807 ft | 484 kts | 92° |
| 2026-04-26 09:57 | 23.99530 | 62.65231 | 34799 ft | 484 kts | 93° |
| 2026-04-26 09:58 | 23.99038 | 62.72539 | 34796 ft | 483 kts | 92° |
| 2026-04-26 09:58 | 23.98542 | 62.79840 | 34782 ft | 483 kts | 93° |
| 2026-04-26 09:59 | 23.98126 | 62.85934 | 34790 ft | 482 kts | 92° |
| 2026-04-26 09:59 | 23.97545 | 62.94398 | 34785 ft | 482 kts | 93° |
| 2026-04-26 10:00 | 23.97037 | 63.01724 | 34799 ft | 483 kts | 93° |
| 2026-04-26 10:00 | 23.96530 | 63.09003 | 34811 ft | 483 kts | 92° |
| 2026-04-26 10:01 | 23.96019 | 63.16281 | 34802 ft | 482 kts | 93° |
| 2026-04-26 10:01 | 23.95503 | 63.23579 | 34802 ft | 482 kts | 93° |
| 2026-04-26 10:02 | 23.94985 | 63.30856 | 34804 ft | 481 kts | 93° |
| 2026-04-26 10:02 | 23.94465 | 63.38113 | 34806 ft | 480 kts | 92° |
| 2026-04-26 10:03 | 23.93945 | 63.45324 | 34806 ft | 480 kts | 92° |
| 2026-04-26 10:03 | 23.93417 | 63.52598 | 34803 ft | 480 kts | 92° |
| 2026-04-26 10:04 | 23.92889 | 63.59816 | 34807 ft | 480 kts | 92° |
| 2026-04-26 10:04 | 23.92354 | 63.67099 | 34811 ft | 479 kts | 93° |
| 2026-04-26 10:05 | 23.91821 | 63.74296 | 34801 ft | 479 kts | 93° |
| 2026-04-26 10:05 | 23.91282 | 63.81527 | 34813 ft | 479 kts | 93° |
| 2026-04-26 10:06 | 23.90739 | 63.88775 | 34807 ft | 479 kts | 93° |
| 2026-04-26 10:06 | 23.90193 | 63.96005 | 34802 ft | 479 kts | 93° |
| 2026-04-26 10:07 | 23.89644 | 64.03239 | 34810 ft | 478 kts | 93° |
| 2026-04-26 10:07 | 23.89092 | 64.10461 | 34812 ft | 478 kts | 93° |
| 2026-04-26 10:08 | 23.88538 | 64.17673 | 34805 ft | 479 kts | 93° |
| 2026-04-26 10:08 | 23.87980 | 64.24888 | 34814 ft | 481 kts | 92° |
| 2026-04-26 10:09 | 23.87509 | 64.30948 | 34795 ft | 484 kts | 93° |
| 2026-04-26 10:09 | 23.86840 | 64.39497 | 34776 ft | 484 kts | 93° |
| 2026-04-26 10:10 | 23.86268 | 64.46763 | 34782 ft | 483 kts | 93° |
| 2026-04-26 10:10 | 23.85690 | 64.54050 | 34787 ft | 483 kts | 93° |
| 2026-04-26 10:11 | 23.85109 | 64.61330 | 34795 ft | 482 kts | 93° |
| 2026-04-26 10:11 | 23.84524 | 64.68630 | 34790 ft | 482 kts | 93° |
| 2026-04-26 10:12 | 23.83937 | 64.75899 | 34783 ft | 483 kts | 93° |
| 2026-04-26 10:12 | 23.83363 | 64.83175 | 34793 ft | 482 kts | 91° |
| 2026-04-26 10:13 | 23.83349 | 64.90476 | 34791 ft | 481 kts | 88° |
| 2026-04-26 10:13 | 23.83403 | 64.97770 | 34794 ft | 480 kts | 88° |
| 2026-04-26 10:14 | 23.83451 | 65.05038 | 34790 ft | 480 kts | 88° |
| 2026-04-26 10:14 | 23.83495 | 65.12291 | 34787 ft | 480 kts | 88° |
| 2026-04-26 10:15 | 23.83534 | 65.19582 | 34796 ft | 480 kts | 88° |
| 2026-04-26 10:15 | 23.83568 | 65.26832 | 34792 ft | 480 kts | 88° |
| 2026-04-26 10:16 | 23.83598 | 65.34094 | 34796 ft | 480 kts | 88° |
| 2026-04-26 10:16 | 23.83625 | 65.41376 | 34796 ft | 480 kts | 88° |
| 2026-04-26 10:17 | 23.83647 | 65.48645 | 34799 ft | 480 kts | 88° |
| 2026-04-26 10:17 | 23.83666 | 65.55862 | 34801 ft | 479 kts | 88° |
| 2026-04-26 10:18 | 23.83682 | 65.63124 | 34789 ft | 479 kts | 88° |
| 2026-04-26 10:18 | 23.83694 | 65.70388 | 34789 ft | 479 kts | 88° |
| 2026-04-26 10:19 | 23.83702 | 65.77633 | 34785 ft | 479 kts | 89° |
| 2026-04-26 10:19 | 23.83707 | 65.84877 | 34793 ft | 479 kts | 89° |
| 2026-04-26 10:20 | 23.83708 | 65.90948 | 34794 ft | 478 kts | 89° |
| 2026-04-26 10:20 | 23.83706 | 65.99361 | 34789 ft | 478 kts | 89° |
| 2026-04-26 10:21 | 23.83701 | 66.06616 | 34786 ft | 478 kts | 89° |
| 2026-04-26 10:21 | 23.83692 | 66.13856 | 34789 ft | 478 kts | 89° |
| 2026-04-26 10:22 | 23.83680 | 66.21076 | 34788 ft | 478 kts | 89° |
| 2026-04-26 10:22 | 23.83664 | 66.28335 | 34787 ft | 478 kts | 89° |
| 2026-04-26 10:23 | 23.83645 | 66.35545 | 34781 ft | 478 kts | 89° |
| 2026-04-26 10:23 | 23.83623 | 66.42779 | 34784 ft | 477 kts | 89° |
| 2026-04-26 10:24 | 23.83597 | 66.50005 | 34785 ft | 478 kts | 89° |
| 2026-04-26 10:24 | 23.83568 | 66.57272 | 34786 ft | 478 kts | 89° |
| 2026-04-26 10:25 | 23.83536 | 66.64509 | 34785 ft | 478 kts | 89° |
| 2026-04-26 10:25 | 23.83500 | 66.71712 | 34785 ft | 478 kts | 89° |
| 2026-04-26 10:26 | 23.83461 | 66.78958 | 34781 ft | 477 kts | 89° |
| 2026-04-26 10:26 | 23.83418 | 66.86189 | 34779 ft | 476 kts | 89° |
| 2026-04-26 10:27 | 23.83372 | 66.93400 | 34785 ft | 476 kts | 89° |
| 2026-04-26 10:27 | 23.83476 | 67.00571 | 34782 ft | 475 kts | 82° |
| 2026-04-26 10:28 | 23.84596 | 67.07655 | 34775 ft | 474 kts | 78° |
| 2026-04-26 10:28 | 23.85765 | 67.14686 | 34769 ft | 473 kts | 78° |
| 2026-04-26 10:29 | 23.86939 | 67.21765 | 34760 ft | 473 kts | 78° |
| 2026-04-26 10:29 | 23.88105 | 67.28827 | 34769 ft | 473 kts | 78° |
| 2026-04-26 10:30 | 23.89267 | 67.35879 | 34767 ft | 474 kts | 78° |
| 2026-04-26 10:30 | 23.90423 | 67.42918 | 34774 ft | 474 kts | 78° |
| 2026-04-26 10:31 | 23.91581 | 67.49994 | 34777 ft | 474 kts | 78° |
| 2026-04-26 10:31 | 23.92741 | 67.57107 | 34768 ft | 474 kts | 78° |
| 2026-04-26 10:32 | 23.93893 | 67.64189 | 34770 ft | 474 kts | 78° |
| 2026-04-26 10:32 | 23.95038 | 67.71251 | 34758 ft | 474 kts | 79° |
| 2026-04-26 10:33 | 23.96180 | 67.78315 | 34773 ft | 474 kts | 79° |
| 2026-04-26 10:33 | 23.97327 | 67.85431 | 34745 ft | 475 kts | 79° |
| 2026-04-26 10:34 | 23.98466 | 67.92517 | 34746 ft | 475 kts | 79° |
| 2026-04-26 10:34 | 23.99601 | 67.99603 | 34736 ft | 476 kts | 79° |
| 2026-04-26 10:35 | 24.00740 | 68.06737 | 34738 ft | 476 kts | 79° |
| 2026-04-26 10:35 | 24.01871 | 68.13841 | 34735 ft | 476 kts | 79° |
| 2026-04-26 10:36 | 24.02997 | 68.20933 | 34729 ft | 475 kts | 79° |
| 2026-04-26 10:36 | 24.04118 | 68.28024 | 34733 ft | 474 kts | 79° |
| 2026-04-26 10:37 | 24.05233 | 68.35091 | 34731 ft | 474 kts | 79° |
| 2026-04-26 10:37 | 24.06076 | 68.42243 | 34755 ft | 475 kts | 88° |
| 2026-04-26 10:38 | 24.05921 | 68.49399 | 34752 ft | 475 kts | 90° |
| 2026-04-26 10:38 | 24.05729 | 68.56639 | 34750 ft | 474 kts | 90° |
| 2026-04-26 10:39 | 24.05535 | 68.63784 | 34750 ft | 474 kts | 90° |
| 2026-04-26 10:39 | 24.05338 | 68.71001 | 34759 ft | 474 kts | 91° |
| 2026-04-26 10:40 | 24.05139 | 68.78153 | 34737 ft | 474 kts | 91° |
| 2026-04-26 10:40 | 24.04935 | 68.85335 | 34743 ft | 474 kts | 91° |
| 2026-04-26 10:41 | 24.04728 | 68.92537 | 34747 ft | 474 kts | 91° |
| 2026-04-26 10:41 | 24.04518 | 68.99725 | 34748 ft | 473 kts | 91° |
| 2026-04-26 10:42 | 24.04342 | 69.05690 | 34747 ft | 473 kts | 91° |
| 2026-04-26 10:42 | 24.04090 | 69.14051 | 34741 ft | 473 kts | 91° |
| 2026-04-26 10:43 | 24.03871 | 69.21205 | 34754 ft | 473 kts | 91° |
| 2026-04-26 10:43 | 24.03649 | 69.28374 | 34739 ft | 473 kts | 91° |
| 2026-04-26 10:44 | 24.03423 | 69.35560 | 34749 ft | 473 kts | 91° |
| 2026-04-26 10:44 | 24.03192 | 69.42770 | 34743 ft | 474 kts | 91° |
| 2026-04-26 10:45 | 24.02960 | 69.49944 | 34744 ft | 474 kts | 91° |
| 2026-04-26 10:45 | 24.02724 | 69.57109 | 34738 ft | 474 kts | 91° |
| 2026-04-26 10:46 | 24.02484 | 69.64318 | 34740 ft | 474 kts | 91° |
| 2026-04-26 10:46 | 24.02242 | 69.71471 | 34740 ft | 473 kts | 92° |
| 2026-04-26 10:47 | 24.01995 | 69.78672 | 34745 ft | 474 kts | 92° |
| 2026-04-26 10:47 | 24.01746 | 69.85845 | 34728 ft | 475 kts | 92° |
| 2026-04-26 10:48 | 24.01491 | 69.93066 | 34728 ft | 475 kts | 92° |
| 2026-04-26 10:48 | 24.01235 | 70.00254 | 34724 ft | 475 kts | 91° |
| 2026-04-26 10:49 | 24.00975 | 70.07449 | 34711 ft | 476 kts | 92° |
| 2026-04-26 10:49 | 24.00710 | 70.14689 | 34718 ft | 475 kts | 92° |
| 2026-04-26 10:50 | 24.00489 | 70.20636 | 34728 ft | 474 kts | 92° |
| 2026-04-26 10:50 | 24.00222 | 70.27763 | 34709 ft | 475 kts | 92° |
| 2026-04-26 10:51 | 23.99762 | 70.39836 | 34730 ft | 475 kts | 92° |
| 2026-04-26 10:52 | 23.99485 | 70.47015 | 34745 ft | 475 kts | 91° |
| 2026-04-26 10:52 | 23.99201 | 70.54253 | 34729 ft | 475 kts | 91° |
| 2026-04-26 10:53 | 23.98917 | 70.61431 | 34726 ft | 475 kts | 91° |
| 2026-04-26 10:53 | 23.98627 | 70.68658 | 34736 ft | 474 kts | 92° |
| 2026-04-26 10:54 | 23.98189 | 70.79421 | 34703 ft | 475 kts | 92° |
| 2026-04-26 10:54 | 23.97892 | 70.86612 | 34725 ft | 475 kts | 92° |
| 2026-04-26 10:55 | 23.97591 | 70.93828 | 34709 ft | 476 kts | 92° |
| 2026-04-26 10:55 | 23.97338 | 70.99815 | 34723 ft | 476 kts | 92° |
| 2026-04-26 10:56 | 23.96980 | 71.08214 | 34725 ft | 476 kts | 92° |
| 2026-04-26 10:56 | 23.96668 | 71.15440 | 34712 ft | 476 kts | 92° |
| 2026-04-26 10:57 | 23.96353 | 71.22675 | 34712 ft | 477 kts | 92° |
| 2026-04-26 10:57 | 23.96037 | 71.29842 | 34716 ft | 475 kts | 92° |
| 2026-04-26 10:58 | 23.95716 | 71.37032 | 34710 ft | 471 kts | 92° |
| 2026-04-26 10:58 | 23.95396 | 71.44135 | 34720 ft | 471 kts | 92° |
| 2026-04-26 10:59 | 23.95071 | 71.51289 | 34726 ft | 471 kts | 92° |
| 2026-04-26 10:59 | 23.94743 | 71.58418 | 34728 ft | 471 kts | 92° |
| 2026-04-26 11:00 | 23.94413 | 71.65537 | 34734 ft | 472 kts | 92° |
| 2026-04-26 11:00 | 23.94078 | 71.72678 | 34741 ft | 472 kts | 92° |
| 2026-04-26 11:01 | 23.93739 | 71.79839 | 34730 ft | 472 kts | 93° |
| 2026-04-26 11:01 | 23.93397 | 71.87004 | 34728 ft | 473 kts | 93° |
| 2026-04-26 11:02 | 23.93050 | 71.94177 | 34729 ft | 473 kts | 93° |
| 2026-04-26 11:02 | 23.92703 | 72.01310 | 34738 ft | 473 kts | 92° |
| 2026-04-26 11:03 | 23.92351 | 72.08449 | 34725 ft | 473 kts | 93° |
| 2026-04-26 11:03 | 23.91994 | 72.15629 | 34740 ft | 473 kts | 93° |
| 2026-04-26 11:04 | 23.91636 | 72.22768 | 34739 ft | 473 kts | 93° |
| 2026-04-26 11:04 | 23.91275 | 72.29923 | 34731 ft | 474 kts | 93° |
| 2026-04-26 11:05 | 23.90906 | 72.37144 | 34727 ft | 475 kts | 93° |
| 2026-04-26 11:05 | 23.90536 | 72.44303 | 34752 ft | 474 kts | 93° |
| 2026-04-26 11:06 | 23.90224 | 72.50321 | 34747 ft | 475 kts | 93° |
| 2026-04-26 11:06 | 23.89786 | 72.58662 | 34745 ft | 475 kts | 93° |
| 2026-04-26 11:07 | 23.89406 | 72.65853 | 34742 ft | 475 kts | 93° |
| 2026-04-26 11:07 | 23.89022 | 72.73045 | 34756 ft | 476 kts | 93° |
| 2026-04-26 11:08 | 23.88632 | 72.80270 | 34739 ft | 475 kts | 93° |
| 2026-04-26 11:08 | 23.88243 | 72.87434 | 34750 ft | 476 kts | 93° |
| 2026-04-26 11:09 | 23.87847 | 72.94645 | 34752 ft | 475 kts | 93° |
| 2026-04-26 11:09 | 23.87452 | 73.01803 | 34751 ft | 476 kts | 93° |
| 2026-04-26 11:10 | 23.87050 | 73.09001 | 34759 ft | 476 kts | 93° |
| 2026-04-26 11:10 | 23.86645 | 73.16206 | 34766 ft | 477 kts | 93° |
| 2026-04-26 11:11 | 23.86236 | 73.23416 | 34769 ft | 477 kts | 93° |
| 2026-04-26 11:11 | 23.85824 | 73.30625 | 34780 ft | 477 kts | 93° |
| 2026-04-26 11:12 | 23.85408 | 73.37833 | 34790 ft | 477 kts | 93° |
| 2026-04-26 11:12 | 23.84990 | 73.45036 | 34807 ft | 477 kts | 93° |
| 2026-04-26 11:13 | 23.84568 | 73.52236 | 34811 ft | 477 kts | 93° |
| 2026-04-26 11:13 | 23.84142 | 73.59439 | 34790 ft | 477 kts | 93° |
| 2026-04-26 11:14 | 23.83710 | 73.66691 | 34771 ft | 477 kts | 94° |
| 2026-04-26 11:14 | 23.83351 | 73.72681 | 34763 ft | 477 kts | 94° |
| 2026-04-26 11:15 | 23.82843 | 73.81074 | 34756 ft | 477 kts | 94° |
| 2026-04-26 11:15 | 23.82403 | 73.88294 | 34743 ft | 478 kts | 94° |
| 2026-04-26 11:16 | 23.81959 | 73.95514 | 34742 ft | 478 kts | 94° |
| 2026-04-26 11:16 | 23.81512 | 74.02745 | 34733 ft | 478 kts | 94° |
| 2026-04-26 11:17 | 23.81064 | 74.09919 | 34744 ft | 477 kts | 94° |
| 2026-04-26 11:17 | 23.80610 | 74.17141 | 34749 ft | 478 kts | 94° |
| 2026-04-26 11:18 | 23.80154 | 74.24342 | 34747 ft | 478 kts | 94° |
| 2026-04-26 11:18 | 23.79692 | 74.31578 | 34733 ft | 478 kts | 94° |
| 2026-04-26 11:19 | 23.79228 | 74.38791 | 34762 ft | 478 kts | 94° |
| 2026-04-26 11:19 | 23.78759 | 74.46036 | 34767 ft | 479 kts | 94° |
| 2026-04-26 11:20 | 23.78368 | 74.52037 | 34776 ft | 479 kts | 94° |
| 2026-04-26 11:20 | 23.77813 | 74.60487 | 34795 ft | 479 kts | 94° |
| 2026-04-26 11:21 | 23.77335 | 74.67709 | 34820 ft | 478 kts | 94° |
| 2026-04-26 11:21 | 23.76854 | 74.74923 | 34840 ft | 479 kts | 94° |
| 2026-04-26 11:22 | 23.76368 | 74.82160 | 34820 ft | 481 kts | 94° |
| 2026-04-26 11:22 | 23.75876 | 74.89442 | 34827 ft | 482 kts | 94° |
| 2026-04-26 11:23 | 23.75382 | 74.96689 | 34836 ft | 481 kts | 94° |
| 2026-04-26 11:23 | 23.74884 | 75.03958 | 34833 ft | 480 kts | 94° |
| 2026-04-26 11:24 | 23.74385 | 75.11179 | 34836 ft | 481 kts | 94° |
| 2026-04-26 11:24 | 23.73882 | 75.18426 | 34830 ft | 481 kts | 94° |
| 2026-04-26 11:25 | 23.73372 | 75.25709 | 34828 ft | 482 kts | 94° |
| 2026-04-26 11:25 | 23.72861 | 75.32971 | 34822 ft | 482 kts | 94° |
| 2026-04-26 11:26 | 23.72344 | 75.40257 | 34819 ft | 483 kts | 94° |
| 2026-04-26 11:26 | 23.71823 | 75.47548 | 34818 ft | 483 kts | 94° |
| 2026-04-26 11:27 | 23.71300 | 75.54833 | 34818 ft | 484 kts | 94° |
| 2026-04-26 11:27 | 23.70774 | 75.62097 | 34816 ft | 483 kts | 94° |
| 2026-04-26 11:28 | 23.70244 | 75.69382 | 34816 ft | 483 kts | 95° |
| 2026-04-26 11:28 | 23.69707 | 75.76704 | 34833 ft | 483 kts | 95° |
| 2026-04-26 11:29 | 23.69170 | 75.83975 | 34838 ft | 484 kts | 95° |
| 2026-04-26 11:29 | 23.68630 | 75.91255 | 34838 ft | 483 kts | 95° |
| 2026-04-26 11:30 | 23.68168 | 75.97317 | 34838 ft | 484 kts | 96° |
| 2026-04-26 11:30 | 23.67314 | 76.02129 | 34831 ft | 484 kts | 107° |
| 2026-04-26 11:30 | 23.66310 | 76.05618 | 34819 ft | 484 kts | 108° |
| 2026-04-26 11:31 | 23.64273 | 76.12598 | 34817 ft | 484 kts | 108° |
| 2026-04-26 11:31 | 23.62239 | 76.19559 | 34814 ft | 484 kts | 108° |
| 2026-04-26 11:32 | 23.60201 | 76.26517 | 34812 ft | 485 kts | 108° |
| 2026-04-26 11:32 | 23.58147 | 76.33518 | 34815 ft | 485 kts | 108° |
| 2026-04-26 11:33 | 23.56101 | 76.40475 | 34811 ft | 485 kts | 109° |
| 2026-04-26 11:33 | 23.54042 | 76.47467 | 34818 ft | 485 kts | 109° |
| 2026-04-26 11:34 | 23.51978 | 76.54459 | 34820 ft | 487 kts | 109° |
| 2026-04-26 11:34 | 23.49904 | 76.61470 | 34810 ft | 487 kts | 109° |
| 2026-04-26 11:35 | 23.47823 | 76.68496 | 34814 ft | 488 kts | 109° |
| 2026-04-26 11:35 | 23.46084 | 76.74352 | 34792 ft | 488 kts | 109° |
| 2026-04-26 11:36 | 23.43663 | 76.82496 | 34814 ft | 487 kts | 109° |
| 2026-04-26 11:36 | 23.41581 | 76.89484 | 34797 ft | 488 kts | 109° |
| 2026-04-26 11:37 | 23.39489 | 76.96492 | 34803 ft | 490 kts | 109° |
| 2026-04-26 11:37 | 23.37380 | 77.03545 | 34790 ft | 491 kts | 109° |
| 2026-04-26 11:38 | 23.35268 | 77.10596 | 34781 ft | 490 kts | 109° |
| 2026-04-26 11:38 | 23.33148 | 77.17659 | 34772 ft | 493 kts | 109° |
| 2026-04-26 11:39 | 23.31020 | 77.24734 | 34782 ft | 494 kts | 109° |
| 2026-04-26 11:39 | 23.28965 | 77.31825 | 34774 ft | 495 kts | 105° |
| 2026-04-26 11:40 | 23.28090 | 77.39249 | 34778 ft | 496 kts | 93° |
| 2026-04-26 11:40 | 23.27788 | 77.46744 | 34787 ft | 501 kts | 93° |
| 2026-04-26 11:42 | 23.26516 | 77.76978 | 34781 ft | 506 kts | 94° |
| 2026-04-26 11:43 | 23.26184 | 77.84656 | 34774 ft | 509 kts | 94° |
| 2026-04-26 11:43 | 23.25847 | 77.92333 | 34763 ft | 510 kts | 94° |
| 2026-04-26 11:44 | 23.25507 | 78.00017 | 34781 ft | 510 kts | 94° |
| 2026-04-26 11:44 | 23.25165 | 78.07671 | 34773 ft | 511 kts | 94° |
| 2026-04-26 11:45 | 23.24817 | 78.15353 | 34771 ft | 512 kts | 94° |
| 2026-04-26 11:45 | 23.24462 | 78.23116 | 34765 ft | 513 kts | 94° |
| 2026-04-26 11:46 | 23.24105 | 78.30833 | 34757 ft | 514 kts | 94° |
| 2026-04-26 11:46 | 23.23745 | 78.38541 | 34744 ft | 514 kts | 94° |
| 2026-04-26 11:47 | 23.23378 | 78.46307 | 34768 ft | 517 kts | 94° |
| 2026-04-26 11:47 | 23.23008 | 78.54063 | 34759 ft | 513 kts | 94° |
| 2026-04-26 11:48 | 23.22637 | 78.61780 | 34740 ft | 513 kts | 94° |
| 2026-04-26 11:48 | 23.22258 | 78.69552 | 34760 ft | 518 kts | 94° |
| 2026-04-26 11:49 | 23.21983 | 78.77354 | 34767 ft | 520 kts | 91° |
| 2026-04-26 11:49 | 23.21876 | 78.85181 | 34766 ft | 518 kts | 91° |
| 2026-04-26 11:50 | 23.21763 | 78.92986 | 34762 ft | 517 kts | 92° |
| 2026-04-26 11:50 | 23.21645 | 79.00771 | 34771 ft | 516 kts | 92° |
| 2026-04-26 11:51 | 23.21523 | 79.08567 | 34796 ft | 517 kts | 92° |
| 2026-04-26 11:51 | 23.21397 | 79.16373 | 34785 ft | 518 kts | 92° |
| 2026-04-26 11:52 | 23.21289 | 79.22879 | 34771 ft | 519 kts | 91° |
| 2026-04-26 11:52 | 23.21132 | 79.31992 | 34789 ft | 520 kts | 91° |
| 2026-04-26 11:53 | 23.20994 | 79.39837 | 34771 ft | 522 kts | 91° |
| 2026-04-26 11:54 | 23.20777 | 79.51638 | 34754 ft | 525 kts | 92° |
| 2026-04-26 11:54 | 23.20585 | 79.59559 | 34739 ft | 525 kts | 93° |
| 2026-04-26 11:55 | 23.20250 | 79.67429 | 34753 ft | 527 kts | 94° |
| 2026-04-26 11:55 | 23.19910 | 79.75391 | 34718 ft | 529 kts | 94° |
| 2026-04-26 11:56 | 23.19568 | 79.83361 | 34738 ft | 528 kts | 93° |
| 2026-04-26 11:56 | 23.19224 | 79.91275 | 34721 ft | 525 kts | 94° |
| 2026-04-26 11:57 | 23.18878 | 79.99146 | 34740 ft | 527 kts | 93° |
| 2026-04-26 11:57 | 23.18523 | 80.07059 | 34748 ft | 527 kts | 94° |
| 2026-04-26 11:58 | 23.18116 | 80.15020 | 34765 ft | 530 kts | 94° |
| 2026-04-26 11:58 | 23.17702 | 80.23009 | 34730 ft | 528 kts | 95° |
| 2026-04-26 11:59 | 23.17287 | 80.30958 | 34732 ft | 530 kts | 94° |
| 2026-04-26 11:59 | 23.16867 | 80.38921 | 34792 ft | 530 kts | 95° |
| 2026-04-26 12:00 | 23.16443 | 80.46904 | 34846 ft | 533 kts | 94° |
| 2026-04-26 12:00 | 23.16012 | 80.54930 | 34837 ft | 535 kts | 94° |
| 2026-04-26 12:01 | 23.15579 | 80.62923 | 34871 ft | 531 kts | 94° |
| 2026-04-26 12:01 | 23.15143 | 80.70910 | 34831 ft | 531 kts | 95° |
| 2026-04-26 12:02 | 23.14706 | 80.78896 | 34844 ft | 530 kts | 95° |
| 2026-04-26 12:02 | 23.14274 | 80.86898 | 34850 ft | 533 kts | 94° |
| 2026-04-26 12:03 | 23.13838 | 80.94902 | 34860 ft | 534 kts | 94° |
| 2026-04-26 12:03 | 23.13397 | 81.02923 | 34833 ft | 533 kts | 94° |
| 2026-04-26 12:04 | 23.12952 | 81.10931 | 34837 ft | 533 kts | 94° |
| 2026-04-26 12:04 | 23.12505 | 81.18913 | 34888 ft | 532 kts | 95° |
| 2026-04-26 12:05 | 23.12053 | 81.26916 | 34876 ft | 533 kts | 95° |
| 2026-04-26 12:05 | 23.11597 | 81.34906 | 34889 ft | 534 kts | 95° |
| 2026-04-26 12:06 | 23.11135 | 81.42953 | 34869 ft | 534 kts | 94° |
| 2026-04-26 12:06 | 23.10670 | 81.50962 | 34897 ft | 535 kts | 95° |
| 2026-04-26 12:07 | 23.10199 | 81.58993 | 34874 ft | 534 kts | 94° |
| 2026-04-26 12:07 | 23.09723 | 81.67069 | 34843 ft | 533 kts | 95° |
| 2026-04-26 12:08 | 23.09246 | 81.75065 | 34806 ft | 535 kts | 95° |
| 2026-04-26 12:08 | 23.08762 | 81.83128 | 34824 ft | 536 kts | 95° |
| 2026-04-26 12:09 | 23.08273 | 81.91209 | 34823 ft | 538 kts | 94° |
| 2026-04-26 12:09 | 23.07784 | 81.99217 | 34802 ft | 535 kts | 94° |
| 2026-04-26 12:10 | 23.07287 | 82.07276 | 34783 ft | 536 kts | 94° |
| 2026-04-26 12:10 | 23.06787 | 82.15327 | 34790 ft | 536 kts | 94° |
| 2026-04-26 12:11 | 23.06407 | 82.23373 | 34762 ft | 535 kts | 93° |
| 2026-04-26 12:11 | 23.06063 | 82.31430 | 34758 ft | 535 kts | 93° |
| 2026-04-26 12:12 | 23.05715 | 82.39452 | 34778 ft | 535 kts | 93° |
| 2026-04-26 12:12 | 23.05362 | 82.47496 | 34769 ft | 536 kts | 92° |
| 2026-04-26 12:13 | 23.05003 | 82.55546 | 34789 ft | 536 kts | 93° |
| 2026-04-26 12:13 | 23.04639 | 82.63618 | 34790 ft | 536 kts | 93° |
| 2026-04-26 12:14 | 23.04271 | 82.71699 | 34772 ft | 537 kts | 93° |
| 2026-04-26 12:14 | 23.03900 | 82.79731 | 34796 ft | 536 kts | 93° |
| 2026-04-26 12:15 | 23.03523 | 82.87801 | 34794 ft | 537 kts | 94° |
| 2026-04-26 12:15 | 23.03143 | 82.95862 | 34807 ft | 537 kts | 94° |
| 2026-04-26 12:16 | 23.02757 | 83.03943 | 34821 ft | 537 kts | 94° |
| 2026-04-26 12:16 | 23.02368 | 83.12003 | 34847 ft | 538 kts | 93° |
| 2026-04-26 12:17 | 23.01975 | 83.20064 | 34835 ft | 537 kts | 94° |
| 2026-04-26 12:17 | 23.01575 | 83.28170 | 34830 ft | 538 kts | 94° |
| 2026-04-26 12:18 | 23.01173 | 83.36246 | 34845 ft | 538 kts | 93° |
| 2026-04-26 12:18 | 23.00766 | 83.44335 | 34845 ft | 538 kts | 93° |
| 2026-04-26 12:19 | 23.00358 | 83.52374 | 34846 ft | 538 kts | 93° |
| 2026-04-26 12:19 | 22.99942 | 83.60465 | 34875 ft | 539 kts | 94° |
| 2026-04-26 12:20 | 22.99521 | 83.68589 | 34885 ft | 538 kts | 94° |
| 2026-04-26 12:20 | 22.99097 | 83.76674 | 34908 ft | 538 kts | 94° |
| 2026-04-26 12:21 | 22.98670 | 83.84761 | 34899 ft | 539 kts | 94° |
| 2026-04-26 12:21 | 22.98238 | 83.92853 | 34903 ft | 540 kts | 93° |
| 2026-04-26 12:22 | 22.97799 | 84.00996 | 34898 ft | 540 kts | 93° |
| 2026-04-26 12:22 | 22.97362 | 84.09044 | 34898 ft | 538 kts | 93° |
| 2026-04-26 12:23 | 22.96860 | 84.17153 | 34888 ft | 540 kts | 95° |
| 2026-04-26 12:23 | 22.96272 | 84.25275 | 34850 ft | 541 kts | 95° |
| 2026-04-26 12:24 | 22.95687 | 84.33321 | 34868 ft | 540 kts | 95° |
| 2026-04-26 12:24 | 22.95093 | 84.41442 | 34854 ft | 541 kts | 95° |
| 2026-04-26 12:25 | 22.94195 | 84.53618 | 34864 ft | 542 kts | 95° |
| 2026-04-26 12:25 | 22.93592 | 84.61724 | 34842 ft | 542 kts | 95° |
| 2026-04-26 12:26 | 22.92981 | 84.69891 | 34830 ft | 542 kts | 95° |
| 2026-04-26 12:26 | 22.92368 | 84.78028 | 34803 ft | 543 kts | 95° |
| 2026-04-26 12:27 | 22.91751 | 84.86176 | 34785 ft | 544 kts | 95° |
| 2026-04-26 12:27 | 22.91132 | 84.94281 | 34779 ft | 544 kts | 95° |
| 2026-04-26 12:28 | 22.90503 | 85.02467 | 34768 ft | 545 kts | 96° |
| 2026-04-26 12:28 | 22.89870 | 85.10648 | 34750 ft | 546 kts | 95° |
| 2026-04-26 12:29 | 22.89237 | 85.18842 | 34758 ft | 546 kts | 95° |
| 2026-04-26 12:30 | 22.88290 | 85.31094 | 34734 ft | 545 kts | 95° |
| 2026-04-26 12:30 | 22.87656 | 85.39236 | 34745 ft | 545 kts | 95° |
| 2026-04-26 12:31 | 22.86693 | 85.51481 | 34741 ft | 544 kts | 95° |
| 2026-04-26 12:31 | 22.86047 | 85.59630 | 34703 ft | 545 kts | 95° |
| 2026-04-26 12:32 | 22.85397 | 85.67777 | 34684 ft | 544 kts | 95° |
| 2026-04-26 12:33 | 22.84415 | 85.79990 | 34637 ft | 545 kts | 95° |
| 2026-04-26 12:33 | 22.83754 | 85.88148 | 34671 ft | 544 kts | 95° |
| 2026-04-26 12:34 | 22.83089 | 85.96294 | 34672 ft | 543 kts | 95° |
| 2026-04-26 12:34 | 22.82423 | 86.04401 | 34681 ft | 545 kts | 96° |
| 2026-04-26 12:35 | 22.81750 | 86.12555 | 34676 ft | 545 kts | 95° |
| 2026-04-26 12:35 | 22.81153 | 86.20717 | 34659 ft | 545 kts | 93° |
| 2026-04-26 12:36 | 22.80723 | 86.28876 | 34689 ft | 544 kts | 93° |
| 2026-04-26 12:36 | 22.80286 | 86.37041 | 34689 ft | 544 kts | 93° |
| 2026-04-26 12:37 | 22.79841 | 86.45258 | 34686 ft | 544 kts | 94° |
| 2026-04-26 12:37 | 22.79395 | 86.53421 | 34674 ft | 545 kts | 93° |
| 2026-04-26 12:38 | 22.78945 | 86.61546 | 34684 ft | 544 kts | 93° |
| 2026-04-26 12:38 | 22.78489 | 86.69721 | 34667 ft | 544 kts | 94° |
| 2026-04-26 12:39 | 22.78028 | 86.77892 | 34667 ft | 544 kts | 94° |
| 2026-04-26 12:39 | 22.77562 | 86.86073 | 34663 ft | 544 kts | 94° |
| 2026-04-26 12:40 | 22.77096 | 86.94196 | 34666 ft | 544 kts | 94° |
| 2026-04-26 12:40 | 22.76623 | 87.02348 | 34642 ft | 544 kts | 94° |
| 2026-04-26 12:41 | 22.76146 | 87.10506 | 34655 ft | 545 kts | 94° |
| 2026-04-26 12:41 | 22.75662 | 87.18700 | 34655 ft | 544 kts | 94° |
| 2026-04-26 12:42 | 22.75176 | 87.26849 | 34650 ft | 544 kts | 93° |
| 2026-04-26 12:42 | 22.74687 | 87.34992 | 34632 ft | 545 kts | 94° |
| 2026-04-26 12:43 | 22.74192 | 87.43149 | 34635 ft | 545 kts | 94° |
| 2026-04-26 12:43 | 22.73694 | 87.51303 | 34657 ft | 544 kts | 93° |
| 2026-04-26 12:44 | 22.73191 | 87.59460 | 34653 ft | 544 kts | 93° |
| 2026-04-26 12:44 | 22.72684 | 87.67620 | 34677 ft | 543 kts | 94° |
| 2026-04-26 12:45 | 22.72174 | 87.75749 | 34661 ft | 543 kts | 94° |
| 2026-04-26 12:45 | 22.71658 | 87.83920 | 34670 ft | 544 kts | 94° |
| 2026-04-26 12:46 | 22.71141 | 87.92032 | 34667 ft | 544 kts | 94° |
| 2026-04-26 12:46 | 22.70617 | 88.00194 | 34663 ft | 544 kts | 94° |
| 2026-04-26 12:47 | 22.70089 | 88.08346 | 34718 ft | 543 kts | 93° |
| 2026-04-26 12:47 | 22.69559 | 88.16478 | 34695 ft | 545 kts | 94° |
| 2026-04-26 12:48 | 22.69025 | 88.24608 | 34723 ft | 542 kts | 94° |
| 2026-04-26 12:48 | 22.68486 | 88.32725 | 34737 ft | 544 kts | 94° |
| 2026-04-26 12:49 | 22.67940 | 88.40901 | 34739 ft | 544 kts | 94° |
| 2026-04-26 12:49 | 22.67029 | 88.48981 | 34735 ft | 543 kts | 101° |
| 2026-04-26 12:50 | 22.65687 | 88.56977 | 34744 ft | 543 kts | 101° |
| 2026-04-26 12:50 | 22.64339 | 88.65025 | 34739 ft | 543 kts | 101° |
| 2026-04-26 12:51 | 22.62989 | 88.73073 | 34694 ft | 543 kts | 101° |
| 2026-04-26 12:51 | 22.61647 | 88.81052 | 34682 ft | 544 kts | 101° |
| 2026-04-26 12:52 | 22.60297 | 88.89062 | 34725 ft | 543 kts | 101° |
| 2026-04-26 12:52 | 22.59071 | 88.97138 | 34683 ft | 544 kts | 97° |
| 2026-04-26 12:53 | 22.58194 | 89.05248 | 34685 ft | 544 kts | 97° |
| 2026-04-26 12:53 | 22.57306 | 89.13364 | 34695 ft | 544 kts | 97° |
| 2026-04-26 12:54 | 22.56415 | 89.21456 | 34717 ft | 544 kts | 97° |
| 2026-04-26 12:54 | 22.55518 | 89.29563 | 34725 ft | 543 kts | 97° |
| 2026-04-26 12:55 | 22.54623 | 89.37596 | 34737 ft | 542 kts | 97° |
| 2026-04-26 12:55 | 22.53715 | 89.45706 | 34717 ft | 543 kts | 97° |
| 2026-04-26 12:56 | 22.52812 | 89.53733 | 34735 ft | 542 kts | 97° |
| 2026-04-26 12:56 | 22.51897 | 89.61832 | 34736 ft | 542 kts | 97° |
| 2026-04-26 12:57 | 22.50980 | 89.69899 | 34729 ft | 541 kts | 97° |
| 2026-04-26 12:57 | 22.50058 | 89.77975 | 34724 ft | 542 kts | 97° |
| 2026-04-26 12:58 | 22.48675 | 89.90020 | 34730 ft | 542 kts | 97° |
| 2026-04-26 12:58 | 22.47739 | 89.98122 | 34734 ft | 542 kts | 97° |
| 2026-04-26 12:59 | 22.46807 | 90.06158 | 34746 ft | 542 kts | 97° |
| 2026-04-26 12:59 | 22.45864 | 90.14251 | 34721 ft | 543 kts | 97° |
| 2026-04-26 13:00 | 22.44922 | 90.22302 | 34737 ft | 543 kts | 97° |
| 2026-04-26 13:00 | 22.43974 | 90.30363 | 34735 ft | 543 kts | 97° |
| 2026-04-26 13:01 | 22.43021 | 90.38442 | 34747 ft | 543 kts | 97° |
| 2026-04-26 13:01 | 22.42068 | 90.46474 | 34746 ft | 543 kts | 97° |
| 2026-04-26 13:02 | 22.41105 | 90.54557 | 34758 ft | 543 kts | 97° |
| 2026-04-26 13:02 | 22.40142 | 90.62613 | 34760 ft | 543 kts | 97° |
| 2026-04-26 13:03 | 22.39167 | 90.70727 | 34757 ft | 542 kts | 97° |
| 2026-04-26 13:03 | 22.38199 | 90.78749 | 34749 ft | 543 kts | 98° |
| 2026-04-26 13:04 | 22.37217 | 90.86850 | 34761 ft | 543 kts | 98° |
| 2026-04-26 13:04 | 22.36238 | 90.94894 | 34769 ft | 543 kts | 98° |
| 2026-04-26 13:05 | 22.35250 | 91.02982 | 34774 ft | 543 kts | 98° |
| 2026-04-26 13:05 | 22.34262 | 91.11034 | 34768 ft | 544 kts | 98° |
| 2026-04-26 13:06 | 22.33270 | 91.19083 | 34773 ft | 544 kts | 97° |
| 2026-04-26 13:06 | 22.32271 | 91.27158 | 34772 ft | 544 kts | 97° |
| 2026-04-26 13:07 | 22.31267 | 91.35236 | 34778 ft | 543 kts | 97° |
| 2026-04-26 13:07 | 22.30311 | 91.43303 | 34777 ft | 543 kts | 97° |
| 2026-04-26 13:08 | 22.29392 | 91.51357 | 34792 ft | 543 kts | 97° |
| 2026-04-26 13:08 | 22.28465 | 91.59439 | 34786 ft | 543 kts | 97° |
| 2026-04-26 13:09 | 22.27532 | 91.67537 | 34807 ft | 543 kts | 97° |
| 2026-04-26 13:09 | 22.26601 | 91.75577 | 34809 ft | 543 kts | 97° |
| 2026-04-26 13:10 | 22.26113 | 91.83683 | 34808 ft | 541 kts | 86° |
| 2026-04-26 13:10 | 22.27014 | 91.91653 | 34806 ft | 539 kts | 79° |
| 2026-04-26 13:11 | 22.28135 | 91.99699 | 34808 ft | 539 kts | 79° |
| 2026-04-26 13:11 | 22.29241 | 92.07678 | 34808 ft | 539 kts | 79° |
| 2026-04-26 13:12 | 22.30343 | 92.15654 | 34797 ft | 539 kts | 79° |
| 2026-04-26 13:12 | 22.31436 | 92.23602 | 34814 ft | 539 kts | 79° |
| 2026-04-26 13:13 | 22.32530 | 92.31578 | 34817 ft | 539 kts | 79° |
| 2026-04-26 13:13 | 22.33622 | 92.39565 | 34818 ft | 539 kts | 79° |
| 2026-04-26 13:14 | 22.34715 | 92.47591 | 34837 ft | 539 kts | 79° |
| 2026-04-26 13:14 | 22.35793 | 92.55540 | 34839 ft | 539 kts | 79° |
| 2026-04-26 13:15 | 22.36877 | 92.63562 | 34846 ft | 539 kts | 79° |
| 2026-04-26 13:15 | 22.37772 | 92.70211 | 34851 ft | 539 kts | 79° |
| 2026-04-26 13:16 | 22.39026 | 92.79523 | 34868 ft | 539 kts | 79° |
| 2026-04-26 13:16 | 22.40100 | 92.87498 | 34923 ft | 539 kts | 79° |
| 2026-04-26 13:17 | 22.41707 | 92.99483 | 34995 ft | 539 kts | 79° |
| 2026-04-26 13:18 | 22.43304 | 93.11466 | 34990 ft | 539 kts | 79° |
| 2026-04-26 13:19 | 22.44891 | 93.23438 | 34958 ft | 538 kts | 79° |
| 2026-04-26 13:19 | 22.45942 | 93.31411 | 35004 ft | 537 kts | 79° |
| 2026-04-26 13:20 | 22.46989 | 93.39381 | 35085 ft | 537 kts | 79° |
| 2026-04-26 13:20 | 22.48037 | 93.47384 | 35142 ft | 537 kts | 79° |
| 2026-04-26 13:21 | 22.49073 | 93.55331 | 35144 ft | 537 kts | 79° |
| 2026-04-26 13:21 | 22.50112 | 93.63335 | 35079 ft | 537 kts | 79° |
| 2026-04-26 13:22 | 22.51142 | 93.71296 | 35024 ft | 536 kts | 79° |
| 2026-04-26 13:22 | 22.52166 | 93.79243 | 34954 ft | 536 kts | 79° |
| 2026-04-26 13:23 | 22.53190 | 93.87224 | 34903 ft | 536 kts | 79° |
| 2026-04-26 13:23 | 22.54207 | 93.95177 | 34833 ft | 536 kts | 79° |
| 2026-04-26 13:24 | 22.55219 | 94.03123 | 34801 ft | 535 kts | 79° |
| 2026-04-26 13:24 | 22.56228 | 94.11076 | 34843 ft | 535 kts | 80° |
| 2026-04-26 13:25 | 22.57229 | 94.19003 | 34870 ft | 535 kts | 79° |
| 2026-04-26 13:25 | 22.58232 | 94.26969 | 34896 ft | 535 kts | 80° |
| 2026-04-26 13:26 | 22.59229 | 94.34929 | 34850 ft | 535 kts | 79° |
| 2026-04-26 13:26 | 22.60220 | 94.42867 | 34814 ft | 534 kts | 79° |
| 2026-04-26 13:27 | 22.61207 | 94.50809 | 34785 ft | 535 kts | 80° |
| 2026-04-26 13:27 | 22.62188 | 94.58733 | 34777 ft | 535 kts | 80° |
| 2026-04-26 13:28 | 22.63172 | 94.66712 | 34778 ft | 535 kts | 80° |
| 2026-04-26 13:28 | 22.64153 | 94.74706 | 34767 ft | 535 kts | 80° |
| 2026-04-26 13:29 | 22.65128 | 94.82680 | 34763 ft | 536 kts | 80° |
| 2026-04-26 13:29 | 22.66095 | 94.90621 | 34763 ft | 536 kts | 81° |
| 2026-04-26 13:30 | 22.67062 | 94.98597 | 34763 ft | 536 kts | 81° |
| 2026-04-26 13:30 | 22.68024 | 95.06569 | 34752 ft | 536 kts | 80° |
| 2026-04-26 13:31 | 22.68981 | 95.14533 | 34753 ft | 536 kts | 81° |
| 2026-04-26 13:31 | 22.69937 | 95.22514 | 34748 ft | 536 kts | 80° |
| 2026-04-26 13:32 | 22.70889 | 95.30503 | 34745 ft | 536 kts | 80° |
| 2026-04-26 13:32 | 22.71840 | 95.38514 | 34771 ft | 536 kts | 80° |
| 2026-04-26 13:33 | 22.72781 | 95.46486 | 34750 ft | 536 kts | 80° |
| 2026-04-26 13:33 | 22.73722 | 95.54479 | 34756 ft | 537 kts | 80° |
| 2026-04-26 13:34 | 22.74658 | 95.62470 | 34754 ft | 538 kts | 80° |
| 2026-04-26 13:34 | 22.75595 | 95.70505 | 34763 ft | 537 kts | 80° |
| 2026-04-26 13:35 | 22.76524 | 95.78499 | 34742 ft | 538 kts | 80° |
| 2026-04-26 13:35 | 22.77449 | 95.86507 | 34758 ft | 537 kts | 80° |
| 2026-04-26 13:36 | 22.78368 | 95.94494 | 34786 ft | 537 kts | 81° |
| 2026-04-26 13:36 | 22.79286 | 96.02501 | 34772 ft | 537 kts | 81° |
| 2026-04-26 13:37 | 22.80198 | 96.10504 | 34833 ft | 536 kts | 81° |
| 2026-04-26 13:37 | 22.81108 | 96.18515 | 34878 ft | 537 kts | 81° |
| 2026-04-26 13:38 | 22.82014 | 96.26525 | 34910 ft | 536 kts | 81° |
| 2026-04-26 13:38 | 22.82912 | 96.34512 | 34924 ft | 535 kts | 80° |
| 2026-04-26 13:39 | 22.83802 | 96.42454 | 34961 ft | 534 kts | 81° |
| 2026-04-26 13:39 | 22.84689 | 96.50414 | 35005 ft | 534 kts | 81° |
| 2026-04-26 13:40 | 22.85577 | 96.58410 | 34979 ft | 534 kts | 81° |
| 2026-04-26 13:40 | 22.86455 | 96.66358 | 35001 ft | 533 kts | 81° |
| 2026-04-26 13:41 | 22.87333 | 96.74343 | 34991 ft | 532 kts | 81° |
| 2026-04-26 13:41 | 22.88199 | 96.82254 | 34981 ft | 532 kts | 82° |
| 2026-04-26 13:42 | 22.89062 | 96.90181 | 34997 ft | 532 kts | 81° |
| 2026-04-26 13:42 | 22.89927 | 96.98153 | 35002 ft | 531 kts | 82° |
| 2026-04-26 13:43 | 22.90780 | 97.06053 | 35005 ft | 532 kts | 81° |
| 2026-04-26 13:43 | 22.91638 | 97.14041 | 35022 ft | 532 kts | 81° |
| 2026-04-26 13:44 | 22.92486 | 97.21974 | 35059 ft | 533 kts | 82° |
| 2026-04-26 13:44 | 22.93335 | 97.29957 | 35042 ft | 533 kts | 81° |
| 2026-04-26 13:45 | 22.94177 | 97.37904 | 35017 ft | 531 kts | 82° |
| 2026-04-26 13:45 | 22.95012 | 97.45834 | 34992 ft | 532 kts | 82° |
| 2026-04-26 13:46 | 22.95845 | 97.53768 | 34989 ft | 533 kts | 82° |
| 2026-04-26 13:46 | 22.96677 | 97.61744 | 34965 ft | 532 kts | 82° |
| 2026-04-26 13:47 | 22.97504 | 97.69712 | 34982 ft | 532 kts | 82° |
| 2026-04-26 13:47 | 22.98880 | 97.77549 | 34980 ft | 527 kts | 69° |
| 2026-04-26 13:48 | 23.01378 | 97.84989 | 34983 ft | 525 kts | 66° |
| 2026-04-26 13:48 | 23.03894 | 97.92332 | 34990 ft | 520 kts | 66° |
| 2026-04-26 13:49 | 23.06409 | 97.99683 | 34981 ft | 522 kts | 66° |
| 2026-04-26 13:49 | 23.08929 | 98.07060 | 35004 ft | 522 kts | 66° |
| 2026-04-26 13:50 | 23.11461 | 98.14488 | 35032 ft | 524 kts | 66° |
| 2026-04-26 13:50 | 23.13969 | 98.21860 | 35065 ft | 520 kts | 66° |
| 2026-04-26 13:51 | 23.16463 | 98.29205 | 35076 ft | 518 kts | 66° |
| 2026-04-26 13:51 | 23.18933 | 98.36490 | 35053 ft | 515 kts | 66° |
| 2026-04-26 13:52 | 23.21410 | 98.43808 | 35027 ft | 514 kts | 66° |
| 2026-04-26 13:52 | 23.23861 | 98.51062 | 35006 ft | 512 kts | 66° |
| 2026-04-26 13:53 | 23.26296 | 98.58280 | 35019 ft | 511 kts | 66° |
| 2026-04-26 13:53 | 23.28740 | 98.65537 | 35040 ft | 510 kts | 66° |
| 2026-04-26 13:54 | 23.31148 | 98.72704 | 35070 ft | 507 kts | 66° |
| 2026-04-26 13:54 | 23.33576 | 98.79937 | 35048 ft | 509 kts | 66° |
| 2026-04-26 13:55 | 23.36786 | 98.89523 | 35019 ft | 503 kts | 66° |
| 2026-04-26 13:56 | 23.40571 | 99.01424 | 35000 ft | 500 kts | 68° |
| 2026-04-26 13:56 | 23.42793 | 99.08536 | 35074 ft | 497 kts | 68° |
| 2026-04-26 13:57 | 23.45004 | 99.15623 | 35147 ft | 495 kts | 68° |
| 2026-04-26 13:57 | 23.47216 | 99.22726 | 35215 ft | 495 kts | 68° |
| 2026-04-26 13:58 | 23.49424 | 99.29820 | 35222 ft | 499 kts | 68° |
| 2026-04-26 13:58 | 23.51639 | 99.36958 | 35172 ft | 495 kts | 68° |
| 2026-04-26 13:59 | 23.54343 | 99.43738 | 35134 ft | 488 kts | 56° |
| 2026-04-26 13:59 | 23.57693 | 99.50133 | 35086 ft | 487 kts | 56° |
| 2026-04-26 14:00 | 23.64369 | 99.62926 | 35158 ft | 486 kts | 57° |
| 2026-04-26 14:01 | 23.67688 | 99.69299 | 35183 ft | 480 kts | 57° |
| 2026-04-26 14:01 | 23.70973 | 99.75614 | 35200 ft | 480 kts | 57° |
| 2026-04-26 14:02 | 23.74264 | 99.81950 | 35213 ft | 483 kts | 57° |
| 2026-04-26 14:02 | 23.77576 | 99.88333 | 35220 ft | 482 kts | 58° |
| 2026-04-26 14:03 | 23.80858 | 99.94669 | 35212 ft | 478 kts | 58° |
| 2026-04-26 14:03 | 23.84094 | 100.00925 | 35210 ft | 475 kts | 57° |
| 2026-04-26 14:04 | 23.87344 | 100.07213 | 35192 ft | 474 kts | 58° |
| 2026-04-26 14:04 | 23.90558 | 100.13442 | 35203 ft | 474 kts | 57° |
| 2026-04-26 14:05 | 23.93787 | 100.19705 | 35236 ft | 474 kts | 58° |
| 2026-04-26 14:05 | 23.97014 | 100.25974 | 35272 ft | 474 kts | 58° |
| 2026-04-26 14:06 | 24.00234 | 100.32237 | 35231 ft | 473 kts | 58° |
| 2026-04-26 14:06 | 24.03446 | 100.38493 | 35175 ft | 473 kts | 58° |
| 2026-04-26 14:07 | 24.06655 | 100.44752 | 35122 ft | 473 kts | 59° |
| 2026-04-26 14:07 | 24.09862 | 100.51014 | 35058 ft | 472 kts | 59° |
| 2026-04-26 14:08 | 24.13072 | 100.57313 | 35092 ft | 471 kts | 59° |
| 2026-04-26 14:08 | 24.16217 | 100.63579 | 35121 ft | 471 kts | 59° |
| 2026-04-26 14:09 | 24.19377 | 100.69882 | 35135 ft | 472 kts | 59° |
| 2026-04-26 14:09 | 24.22518 | 100.76154 | 35174 ft | 472 kts | 59° |
| 2026-04-26 14:10 | 24.25678 | 100.82473 | 35141 ft | 473 kts | 60° |
| 2026-04-26 14:10 | 24.28826 | 100.88777 | 35126 ft | 473 kts | 59° |
| 2026-04-26 14:11 | 24.33529 | 100.98211 | 35110 ft | 472 kts | 60° |
| 2026-04-26 14:11 | 24.36675 | 101.04530 | 35123 ft | 472 kts | 60° |
| 2026-04-26 14:12 | 24.39800 | 101.10815 | 35128 ft | 472 kts | 59° |
| 2026-04-26 14:12 | 24.42936 | 101.17132 | 35121 ft | 472 kts | 60° |
| 2026-04-26 14:13 | 24.47625 | 101.26592 | 35090 ft | 473 kts | 59° |
| 2026-04-26 14:14 | 24.50770 | 101.32948 | 35068 ft | 474 kts | 59° |
| 2026-04-26 14:14 | 24.53908 | 101.39298 | 35075 ft | 474 kts | 59° |
| 2026-04-26 14:15 | 24.57030 | 101.45624 | 35067 ft | 474 kts | 59° |
| 2026-04-26 14:15 | 24.60180 | 101.52016 | 35071 ft | 474 kts | 59° |
| 2026-04-26 14:16 | 24.63279 | 101.58334 | 35089 ft | 474 kts | 59° |
| 2026-04-26 14:16 | 24.66386 | 101.64757 | 35102 ft | 474 kts | 59° |
| 2026-04-26 14:17 | 24.69459 | 101.71116 | 35120 ft | 474 kts | 60° |
| 2026-04-26 14:17 | 24.72540 | 101.77499 | 35127 ft | 474 kts | 60° |
| 2026-04-26 14:18 | 24.75635 | 101.83921 | 35115 ft | 475 kts | 60° |
| 2026-04-26 14:18 | 24.78726 | 101.90343 | 35124 ft | 475 kts | 60° |
| 2026-04-26 14:19 | 24.81790 | 101.96718 | 35114 ft | 475 kts | 59° |
| 2026-04-26 14:19 | 24.84884 | 102.03162 | 35103 ft | 475 kts | 59° |
| 2026-04-26 14:20 | 24.87956 | 102.09571 | 35108 ft | 475 kts | 59° |
| 2026-04-26 14:20 | 24.91027 | 102.15987 | 35131 ft | 475 kts | 59° |
| 2026-04-26 14:21 | 24.94090 | 102.22395 | 35144 ft | 475 kts | 59° |
| 2026-04-26 14:21 | 24.97170 | 102.28848 | 35174 ft | 476 kts | 59° |
| 2026-04-26 14:22 | 25.00230 | 102.35267 | 35178 ft | 476 kts | 59° |
| 2026-04-26 14:22 | 25.02920 | 102.41969 | 35180 ft | 480 kts | 69° |
| 2026-04-26 14:23 | 25.04302 | 102.49171 | 35196 ft | 485 kts | 82° |
| 2026-04-26 14:23 | 25.04249 | 102.56569 | 35184 ft | 490 kts | 95° |
| 2026-04-26 14:24 | 25.02704 | 102.63870 | 35144 ft | 491 kts | 108° |
| 2026-04-26 14:24 | 24.99890 | 102.70737 | 35084 ft | 493 kts | 115° |
| 2026-04-26 14:25 | 24.96896 | 102.77502 | 35086 ft | 493 kts | 115° |
| 2026-04-26 14:25 | 24.93878 | 102.84309 | 35104 ft | 495 kts | 116° |
| 2026-04-26 14:26 | 24.90873 | 102.91132 | 35132 ft | 496 kts | 115° |
| 2026-04-26 14:26 | 24.87896 | 102.97951 | 35166 ft | 496 kts | 115° |
| 2026-04-26 14:27 | 24.84916 | 103.04762 | 35132 ft | 496 kts | 115° |
| 2026-04-26 14:27 | 24.81930 | 103.11575 | 35114 ft | 495 kts | 115° |
| 2026-04-26 14:28 | 24.78941 | 103.18384 | 35146 ft | 495 kts | 115° |
| 2026-04-26 14:28 | 24.75949 | 103.25188 | 35132 ft | 495 kts | 115° |
| 2026-04-26 14:29 | 24.72948 | 103.31999 | 35141 ft | 494 kts | 116° |
| 2026-04-26 14:29 | 24.69952 | 103.38789 | 35142 ft | 495 kts | 116° |
| 2026-04-26 14:30 | 24.66957 | 103.45565 | 35147 ft | 494 kts | 116° |
| 2026-04-26 14:30 | 24.63955 | 103.52347 | 35138 ft | 494 kts | 116° |
| 2026-04-26 14:31 | 24.60963 | 103.59096 | 35133 ft | 494 kts | 116° |
| 2026-04-26 14:31 | 24.57959 | 103.65860 | 35139 ft | 494 kts | 117° |
| 2026-04-26 14:32 | 24.54973 | 103.72662 | 35137 ft | 494 kts | 113° |
| 2026-04-26 14:32 | 24.52996 | 103.79833 | 35131 ft | 494 kts | 103° |
| 2026-04-26 14:33 | 24.51445 | 103.87169 | 35125 ft | 495 kts | 103° |
| 2026-04-26 14:33 | 24.49879 | 103.94534 | 35124 ft | 495 kts | 103° |
| 2026-04-26 14:34 | 24.48317 | 104.01855 | 35119 ft | 495 kts | 103° |
| 2026-04-26 14:34 | 24.46746 | 104.09193 | 35109 ft | 495 kts | 103° |
| 2026-04-26 14:35 | 24.45180 | 104.16491 | 35094 ft | 495 kts | 103° |
| 2026-04-26 14:35 | 24.43605 | 104.23810 | 35095 ft | 494 kts | 103° |
| 2026-04-26 14:36 | 24.42017 | 104.31168 | 35087 ft | 497 kts | 103° |
| 2026-04-26 14:36 | 24.40428 | 104.38512 | 35072 ft | 497 kts | 103° |
| 2026-04-26 14:37 | 24.38837 | 104.45845 | 35077 ft | 496 kts | 103° |
| 2026-04-26 14:37 | 24.37234 | 104.53215 | 35072 ft | 496 kts | 103° |
| 2026-04-26 14:38 | 24.35637 | 104.60539 | 35050 ft | 498 kts | 104° |
| 2026-04-26 14:38 | 24.34033 | 104.67874 | 35056 ft | 499 kts | 103° |
| 2026-04-26 14:39 | 24.32409 | 104.75285 | 35054 ft | 498 kts | 104° |
| 2026-04-26 14:39 | 24.30786 | 104.82671 | 35051 ft | 498 kts | 104° |
| 2026-04-26 14:40 | 24.29168 | 104.90020 | 35034 ft | 498 kts | 104° |
| 2026-04-26 14:40 | 24.27541 | 104.97385 | 35030 ft | 498 kts | 104° |
| 2026-04-26 14:41 | 24.25919 | 105.04717 | 34992 ft | 498 kts | 104° |
| 2026-04-26 14:41 | 24.24286 | 105.12073 | 34977 ft | 499 kts | 104° |
| 2026-04-26 14:42 | 24.22650 | 105.19431 | 34986 ft | 501 kts | 104° |
| 2026-04-26 14:42 | 24.20924 | 105.26796 | 34975 ft | 500 kts | 106° |
| 2026-04-26 14:43 | 24.19140 | 105.34152 | 34967 ft | 501 kts | 105° |
| 2026-04-26 14:43 | 24.17348 | 105.41528 | 34967 ft | 502 kts | 105° |
| 2026-04-26 14:44 | 24.15560 | 105.48872 | 34985 ft | 502 kts | 105° |
| 2026-04-26 14:44 | 24.13757 | 105.56262 | 35001 ft | 502 kts | 106° |
| 2026-04-26 14:45 | 24.11965 | 105.63593 | 34984 ft | 503 kts | 105° |
| 2026-04-26 14:45 | 24.10179 | 105.70992 | 34987 ft | 503 kts | 105° |
| 2026-04-26 14:46 | 24.08690 | 105.78476 | 34970 ft | 505 kts | 103° |
| 2026-04-26 14:46 | 24.07211 | 105.85954 | 34959 ft | 505 kts | 103° |
| 2026-04-26 14:47 | 24.05719 | 105.93470 | 34940 ft | 507 kts | 103° |
| 2026-04-26 14:47 | 24.04223 | 106.00980 | 34919 ft | 506 kts | 104° |
| 2026-04-26 14:48 | 24.02724 | 106.08485 | 34910 ft | 506 kts | 104° |
| 2026-04-26 14:48 | 24.01221 | 106.15992 | 34918 ft | 506 kts | 104° |
| 2026-04-26 14:49 | 23.99710 | 106.23512 | 34926 ft | 508 kts | 104° |
| 2026-04-26 14:49 | 23.98201 | 106.30999 | 34925 ft | 509 kts | 104° |
| 2026-04-26 14:50 | 23.96677 | 106.38545 | 34930 ft | 509 kts | 104° |
| 2026-04-26 14:50 | 23.95152 | 106.46076 | 34922 ft | 509 kts | 104° |
| 2026-04-26 14:51 | 23.93621 | 106.53610 | 34932 ft | 508 kts | 104° |
| 2026-04-26 14:51 | 23.92227 | 106.61150 | 34936 ft | 511 kts | 97° |
| 2026-04-26 14:52 | 23.91689 | 106.68932 | 34930 ft | 511 kts | 95° |
| 2026-04-26 14:52 | 23.91185 | 106.76629 | 34934 ft | 512 kts | 95° |
| 2026-04-26 14:53 | 23.90672 | 106.84390 | 34938 ft | 514 kts | 95° |
| 2026-04-26 14:53 | 23.90153 | 106.92152 | 34938 ft | 515 kts | 95° |
| 2026-04-26 14:54 | 23.89629 | 106.99937 | 34945 ft | 513 kts | 95° |
| 2026-04-26 14:54 | 23.89102 | 107.07676 | 34937 ft | 512 kts | 95° |
| 2026-04-26 14:55 | 23.88571 | 107.15417 | 34932 ft | 512 kts | 95° |
| 2026-04-26 14:55 | 23.88034 | 107.23175 | 34931 ft | 514 kts | 95° |
| 2026-04-26 14:56 | 23.87493 | 107.30940 | 34937 ft | 514 kts | 95° |
| 2026-04-26 14:56 | 23.86950 | 107.38687 | 34934 ft | 514 kts | 95° |
| 2026-04-26 14:57 | 23.86398 | 107.46478 | 34943 ft | 515 kts | 95° |
| 2026-04-26 14:57 | 23.85844 | 107.54260 | 34943 ft | 516 kts | 95° |
| 2026-04-26 14:58 | 23.85285 | 107.62041 | 34960 ft | 515 kts | 96° |
| 2026-04-26 14:58 | 23.84723 | 107.69816 | 34964 ft | 515 kts | 96° |
| 2026-04-26 14:59 | 23.84156 | 107.77593 | 34970 ft | 515 kts | 96° |
| 2026-04-26 14:59 | 23.83594 | 107.85317 | 34956 ft | 514 kts | 95° |
| 2026-04-26 15:00 | 23.83193 | 107.93095 | 34937 ft | 515 kts | 94° |
| 2026-04-26 15:00 | 23.82801 | 108.00913 | 34913 ft | 516 kts | 94° |
| 2026-04-26 15:01 | 23.82406 | 108.08707 | 34920 ft | 516 kts | 94° |
| 2026-04-26 15:01 | 23.82005 | 108.16503 | 34917 ft | 516 kts | 94° |
| 2026-04-26 15:02 | 23.81575 | 108.24305 | 34920 ft | 515 kts | 94° |
| 2026-04-26 15:02 | 23.81140 | 108.32094 | 34936 ft | 515 kts | 94° |
| 2026-04-26 15:03 | 23.80702 | 108.39867 | 34952 ft | 515 kts | 94° |
| 2026-04-26 15:03 | 23.80261 | 108.47611 | 34948 ft | 515 kts | 94° |
| 2026-04-26 15:04 | 23.79812 | 108.55437 | 34927 ft | 516 kts | 94° |
| 2026-04-26 15:04 | 23.79364 | 108.63173 | 34970 ft | 515 kts | 94° |
| 2026-04-26 15:05 | 23.78907 | 108.70979 | 34953 ft | 513 kts | 94° |
| 2026-04-26 15:05 | 23.78452 | 108.78709 | 34964 ft | 512 kts | 94° |
| 2026-04-26 15:06 | 23.77989 | 108.86485 | 34943 ft | 514 kts | 94° |
| 2026-04-26 15:06 | 23.77525 | 108.94221 | 34918 ft | 512 kts | 94° |
| 2026-04-26 15:07 | 23.76823 | 109.05815 | 34927 ft | 513 kts | 94° |
| 2026-04-26 15:07 | 23.76330 | 109.13574 | 34902 ft | 513 kts | 96° |
| 2026-04-26 15:08 | 23.75019 | 109.21191 | 34915 ft | 509 kts | 104° |
| 2026-04-26 15:08 | 23.73508 | 109.28638 | 34919 ft | 506 kts | 103° |
| 2026-04-26 15:09 | 23.71989 | 109.36120 | 34920 ft | 507 kts | 103° |
| 2026-04-26 15:09 | 23.70465 | 109.43623 | 34931 ft | 509 kts | 103° |
| 2026-04-26 15:10 | 23.69194 | 109.49875 | 34934 ft | 508 kts | 103° |
| 2026-04-26 15:10 | 23.67408 | 109.58646 | 34941 ft | 507 kts | 104° |
| 2026-04-26 15:11 | 23.65873 | 109.66133 | 34945 ft | 507 kts | 104° |
| 2026-04-26 15:11 | 23.64333 | 109.73601 | 34940 ft | 508 kts | 104° |
| 2026-04-26 15:12 | 23.62789 | 109.81072 | 34956 ft | 505 kts | 104° |
| 2026-04-26 15:12 | 23.61246 | 109.88518 | 34962 ft | 505 kts | 104° |
| 2026-04-26 15:13 | 23.59693 | 109.95994 | 34968 ft | 506 kts | 104° |
| 2026-04-26 15:13 | 23.58142 | 110.03447 | 34966 ft | 505 kts | 104° |
| 2026-04-26 15:14 | 23.56592 | 110.10882 | 34946 ft | 506 kts | 104° |
| 2026-04-26 15:14 | 23.55034 | 110.18329 | 34931 ft | 506 kts | 104° |
| 2026-04-26 15:15 | 23.53467 | 110.25806 | 34927 ft | 505 kts | 104° |
| 2026-04-26 15:15 | 23.51909 | 110.33219 | 34915 ft | 506 kts | 104° |
| 2026-04-26 15:16 | 23.50371 | 110.40675 | 34913 ft | 506 kts | 104° |
| 2026-04-26 15:16 | 23.48857 | 110.48142 | 34912 ft | 506 kts | 103° |
| 2026-04-26 15:17 | 23.47592 | 110.54363 | 34914 ft | 506 kts | 103° |
| 2026-04-26 15:17 | 23.45813 | 110.63094 | 34927 ft | 506 kts | 103° |
| 2026-04-26 15:18 | 23.44294 | 110.70523 | 34917 ft | 505 kts | 104° |
| 2026-04-26 15:18 | 23.42738 | 110.77985 | 34924 ft | 505 kts | 104° |
| 2026-04-26 15:19 | 23.41181 | 110.85380 | 34935 ft | 505 kts | 104° |
| 2026-04-26 15:19 | 23.39612 | 110.92810 | 34943 ft | 505 kts | 104° |
| 2026-04-26 15:20 | 23.38040 | 111.00243 | 34944 ft | 504 kts | 104° |
| 2026-04-26 15:20 | 23.36468 | 111.07652 | 34944 ft | 504 kts | 104° |
| 2026-04-26 15:21 | 23.34894 | 111.15065 | 34944 ft | 504 kts | 104° |
| 2026-04-26 15:21 | 23.33376 | 111.22491 | 34942 ft | 504 kts | 103° |
| 2026-04-26 15:22 | 23.31857 | 111.29934 | 34939 ft | 504 kts | 103° |
| 2026-04-26 15:22 | 23.30345 | 111.37324 | 34938 ft | 503 kts | 103° |
| 2026-04-26 15:23 | 23.28824 | 111.44737 | 34933 ft | 503 kts | 103° |
| 2026-04-26 15:23 | 23.27300 | 111.52146 | 34934 ft | 503 kts | 103° |
| 2026-04-26 15:24 | 23.25753 | 111.59512 | 34935 ft | 503 kts | 104° |
| 2026-04-26 15:24 | 23.24194 | 111.66891 | 34944 ft | 502 kts | 104° |
| 2026-04-26 15:25 | 23.22888 | 111.73058 | 34943 ft | 502 kts | 104° |
| 2026-04-26 15:25 | 23.21057 | 111.81686 | 34956 ft | 502 kts | 104° |
| 2026-04-26 15:26 | 23.19521 | 111.89064 | 34972 ft | 501 kts | 103° |
| 2026-04-26 15:26 | 23.17983 | 111.96473 | 34988 ft | 501 kts | 104° |
| 2026-04-26 15:27 | 23.16461 | 112.03786 | 34986 ft | 501 kts | 103° |
| 2026-04-26 15:27 | 23.14917 | 112.11186 | 34975 ft | 500 kts | 104° |
| 2026-04-26 15:28 | 23.13389 | 112.18492 | 34965 ft | 501 kts | 104° |
| 2026-04-26 15:28 | 23.11846 | 112.25850 | 34958 ft | 501 kts | 103° |
| 2026-04-26 15:29 | 23.10297 | 112.33219 | 34957 ft | 501 kts | 103° |
| 2026-04-26 15:30 | 23.07221 | 112.47933 | 34949 ft | 501 kts | 101° |
| 2026-04-26 15:30 | 23.06549 | 112.55466 | 34943 ft | 502 kts | 94° |
| 2026-04-26 15:31 | 23.05804 | 112.66762 | 34945 ft | 502 kts | 94° |
| 2026-04-26 15:32 | 23.05214 | 112.75574 | 34954 ft | 502 kts | 94° |
| 2026-04-26 15:32 | 23.04534 | 112.85612 | 34952 ft | 503 kts | 94° |
| 2026-04-26 15:33 | 23.04015 | 112.93185 | 34953 ft | 503 kts | 94° |
| 2026-04-26 15:33 | 23.03438 | 113.00713 | 34962 ft | 503 kts | 97° |
| 2026-04-26 15:34 | 23.01654 | 113.08010 | 34953 ft | 502 kts | 113° |
| 2026-04-26 15:34 | 22.98253 | 113.14573 | 34957 ft | 499 kts | 129° |
| 2026-04-26 15:35 | 22.93486 | 113.19962 | 34946 ft | 493 kts | 144° |
| 2026-04-26 15:35 | 22.87730 | 113.23817 | 34965 ft | 484 kts | 159° |
| 2026-04-26 15:36 | 22.81377 | 113.26239 | 34943 ft | 481 kts | 166° |
| 2026-04-26 15:36 | 22.74990 | 113.28461 | 34948 ft | 481 kts | 166° |
| 2026-04-26 15:37 | 22.68629 | 113.30671 | 34955 ft | 481 kts | 166° |
| 2026-04-26 15:37 | 22.62270 | 113.32876 | 34950 ft | 481 kts | 166° |
| 2026-04-26 15:38 | 22.55887 | 113.35087 | 34954 ft | 480 kts | 166° |
| 2026-04-26 15:38 | 22.49537 | 113.37282 | 34943 ft | 481 kts | 166° |
| 2026-04-26 15:39 | 22.43138 | 113.39492 | 34962 ft | 481 kts | 166° |
| 2026-04-26 15:39 | 22.38916 | 113.40949 | 34954 ft | 481 kts | 166° |